createdAt,value
2023-01-21T00:01:17.112Z,9.00
2023-01-21T00:03:45.899Z,8.30
2023-01-21T00:06:15.884Z,8.30
2023-01-21T00:08:44.191Z,8.60
2023-01-21T00:11:14.510Z,7.77
2023-01-21T00:13:43.468Z,8.20
2023-01-21T00:16:12.430Z,7.67
2023-01-21T00:18:40.533Z,7.70
2023-01-21T00:21:08.817Z,9.20
2023-01-21T00:23:38.220Z,8.20
2023-01-21T00:26:08.038Z,7.67
2023-01-21T00:28:38.204Z,8.90
2023-01-21T00:31:09.120Z,8.27
2023-01-21T00:33:37.590Z,8.30
2023-01-21T00:36:07.945Z,8.00
2023-01-21T00:38:36.810Z,7.70
2023-01-21T00:41:07.617Z,8.60
2023-01-21T00:43:36.156Z,7.97
2023-01-21T00:46:04.571Z,8.03
2023-01-21T00:48:33.076Z,8.23
2023-01-21T00:51:01.481Z,7.13
2023-01-21T00:53:31.991Z,8.53
2023-01-21T00:56:01.301Z,7.90
2023-01-21T00:58:31.390Z,9.00
2023-01-21T01:01:03.612Z,7.67
2023-01-21T01:03:32.338Z,9.20
2023-01-21T01:06:05.240Z,8.10
2023-01-21T01:08:33.946Z,9.60
2023-01-21T01:11:02.582Z,8.90
2023-01-21T01:13:33.701Z,9.20
2023-01-21T01:16:02.639Z,8.67
2023-01-21T01:18:33.605Z,8.87
2023-01-21T01:21:02.310Z,9.40
2023-01-21T01:23:30.766Z,8.83
2023-01-21T01:26:00.748Z,9.37
2023-01-21T01:28:29.852Z,9.43
2023-01-21T01:30:59.975Z,9.47
2023-01-21T01:33:28.655Z,8.70
2023-01-21T01:35:56.747Z,8.50
2023-01-21T01:38:25.292Z,9.63
2023-01-21T01:40:53.738Z,9.00
2023-01-21T01:43:23.762Z,8.07
2023-01-21T01:45:52.356Z,7.70
2023-01-21T01:48:26.803Z,8.20
2023-01-21T01:50:56.525Z,9.17
2023-01-21T01:53:26.012Z,9.77
2023-01-21T01:55:54.554Z,9.40
2023-01-21T01:58:23.909Z,9.90
2023-01-21T02:00:51.953Z,9.57
2023-01-21T02:03:38.713Z,9.60
2023-01-21T02:06:07.149Z,10.00
2023-01-21T02:08:36.354Z,12.40
2023-01-21T02:11:11.623Z,10.43
2023-01-21T02:13:40.568Z,10.73
2023-01-21T02:16:26.775Z,10.60
2023-01-21T02:19:06.083Z,11.17
2023-01-21T02:21:55.286Z,11.10
2023-01-21T02:25:00.907Z,10.93
2023-01-21T02:27:52.917Z,12.17
2023-01-21T02:30:42.246Z,11.67
2023-01-21T02:33:46.260Z,11.50
2023-01-21T02:36:26.608Z,11.10
2023-01-21T02:39:04.232Z,11.27
2023-01-21T02:41:43.345Z,12.20
2023-01-21T02:44:17.591Z,12.13
2023-01-21T02:46:51.868Z,12.17
2023-01-21T02:49:26.351Z,10.77
2023-01-21T02:51:54.383Z,11.03
2023-01-21T02:54:52.173Z,12.20
2023-01-21T02:57:30.624Z,12.80
2023-01-21T03:00:01.043Z,9.00
2023-01-21T03:02:45.720Z,10.77
2023-01-21T03:05:21.868Z,8.93
2023-01-21T03:07:59.969Z,9.30
2023-01-21T03:10:32.980Z,10.23
2023-01-21T03:13:06.038Z,11.10
2023-01-21T03:15:56.338Z,10.27
2023-01-21T03:18:28.752Z,11.17
2023-01-21T03:21:02.133Z,11.33
2023-01-21T03:23:35.090Z,12.37
2023-01-21T03:26:05.549Z,13.00
2023-01-21T03:28:39.074Z,13.50
2023-01-21T03:31:10.541Z,12.90
2023-01-21T03:33:46.512Z,12.83
2023-01-21T03:36:27.606Z,12.80
2023-01-21T03:38:58.414Z,13.87
2023-01-21T03:41:33.559Z,13.43
2023-01-21T03:44:02.050Z,13.50
2023-01-21T03:46:38.308Z,13.30
2023-01-21T03:49:12.405Z,12.70
2023-01-21T03:51:46.242Z,12.00
2023-01-21T03:54:14.393Z,12.60
2023-01-21T03:56:42.413Z,12.20
2023-01-21T03:59:10.849Z,11.50
2023-01-21T04:01:39.556Z,11.30
2023-01-21T04:04:07.683Z,11.57
2023-01-21T04:06:36.730Z,11.70
2023-01-21T04:09:06.480Z,12.00
2023-01-21T04:11:34.633Z,12.00
2023-01-21T04:14:02.914Z,11.80
2023-01-21T04:16:30.919Z,12.13
2023-01-21T04:18:58.973Z,11.23
2023-01-21T04:21:27.017Z,11.63
2023-01-21T04:23:55.219Z,12.30
2023-01-21T04:26:24.614Z,12.23
2023-01-21T04:28:52.740Z,11.10
2023-01-21T04:31:20.908Z,10.40
2023-01-21T04:33:48.931Z,10.97
2023-01-21T04:36:17.010Z,12.00
2023-01-21T04:38:45.036Z,10.83
2023-01-21T04:41:13.051Z,11.50
2023-01-21T04:43:42.405Z,11.43
2023-01-21T04:46:10.576Z,12.70
2023-01-21T04:48:38.624Z,11.27
2023-01-21T04:51:07.882Z,11.90
2023-01-21T04:53:36.077Z,12.37
2023-01-21T04:56:04.097Z,12.33
2023-01-21T04:58:32.151Z,12.93
2023-01-21T05:01:01.593Z,12.63
2023-01-21T05:03:29.544Z,12.50
2023-01-21T05:05:57.585Z,10.90
2023-01-21T05:08:25.676Z,12.40
2023-01-21T05:10:53.683Z,11.70
2023-01-21T05:13:21.657Z,10.50
2023-01-21T05:15:49.852Z,11.47
2023-01-21T05:18:19.497Z,11.23
2023-01-21T05:20:47.644Z,13.00
2023-01-21T05:23:15.647Z,11.67
2023-01-21T05:25:43.686Z,12.20
2023-01-21T05:28:11.696Z,13.23
2023-01-21T05:30:41.351Z,12.43
2023-01-21T05:33:10.124Z,12.60
2023-01-21T05:35:39.548Z,13.60
2023-01-21T05:38:07.781Z,12.87
2023-01-21T05:40:35.835Z,12.60
2023-01-21T05:43:03.828Z,12.53
2023-01-21T05:45:31.876Z,12.17
2023-01-21T05:47:59.896Z,13.17
2023-01-21T05:50:27.916Z,12.20
2023-01-21T05:52:57.298Z,13.60
2023-01-21T05:55:25.408Z,13.60
2023-01-21T05:57:53.404Z,13.70
2023-01-21T06:00:22.160Z,13.27
2023-01-21T06:02:50.191Z,13.40
2023-01-21T06:05:18.243Z,13.30
2023-01-21T06:07:46.352Z,14.90
2023-01-21T06:10:16.348Z,14.20
2023-01-21T06:12:44.477Z,15.27
2023-01-21T06:15:13.895Z,16.17
2023-01-21T06:17:42.293Z,15.53
2023-01-21T06:20:11.784Z,17.90
2023-01-21T06:22:40.049Z,16.83
2023-01-21T06:25:08.677Z,16.90
2023-01-21T06:27:38.744Z,17.10
2023-01-21T06:30:08.673Z,17.17
2023-01-21T06:32:36.840Z,16.93
2023-01-21T06:35:05.364Z,18.73
2023-01-21T06:37:33.601Z,17.70
2023-01-21T06:40:01.673Z,19.23
2023-01-21T06:42:29.785Z,19.20
2023-01-21T06:44:59.621Z,21.67
2023-01-21T06:47:27.651Z,18.33
2023-01-21T06:49:55.733Z,20.47
2023-01-21T06:52:24.209Z,21.50
2023-01-21T06:54:52.261Z,21.00
2023-01-21T06:57:20.283Z,20.47
2023-01-21T06:59:48.278Z,21.87
2023-01-21T07:02:17.527Z,24.13
2023-01-21T07:04:46.065Z,22.30
2023-01-21T07:07:13.986Z,22.57
2023-01-21T07:09:41.966Z,24.70
2023-01-21T07:12:10.182Z,24.10
2023-01-21T07:14:38.174Z,25.00
2023-01-21T07:17:06.410Z,25.90
2023-01-21T07:19:35.701Z,24.27
2023-01-21T07:22:03.691Z,23.97
2023-01-21T07:24:31.661Z,23.30
2023-01-21T07:26:59.595Z,26.13
2023-01-21T07:29:27.976Z,23.87
2023-01-21T07:31:56.047Z,25.00
2023-01-21T07:34:24.090Z,23.07
2023-01-21T07:36:53.411Z,24.40
2023-01-21T07:39:21.453Z,24.90
2023-01-21T07:41:49.483Z,26.20
2023-01-21T07:44:17.483Z,25.33
2023-01-21T07:46:45.583Z,24.40
2023-01-21T07:49:17.229Z,24.80
2023-01-21T07:51:45.545Z,24.43
2023-01-21T07:54:15.398Z,22.70
2023-01-21T07:56:43.509Z,23.57
2023-01-21T07:59:13.385Z,23.83
2023-01-21T08:01:41.504Z,23.73
2023-01-21T08:04:09.886Z,23.60
2023-01-21T08:06:41.278Z,22.03
2023-01-21T08:09:10.334Z,22.27
2023-01-21T08:11:39.713Z,23.60
2023-01-21T08:14:07.689Z,22.67
2023-01-21T08:16:35.691Z,22.70
2023-01-21T08:19:03.674Z,21.53
2023-01-21T08:21:31.720Z,21.80
2023-01-21T08:23:59.690Z,22.73
2023-01-21T08:26:27.761Z,22.30
2023-01-21T08:28:57.340Z,21.57
2023-01-21T08:31:25.322Z,20.97
2023-01-21T08:33:53.332Z,22.77
2023-01-21T08:36:21.293Z,20.03
2023-01-21T08:38:49.243Z,20.77
2023-01-21T08:41:17.765Z,21.17
2023-01-21T08:43:45.739Z,20.80
2023-01-21T08:46:15.630Z,22.40
2023-01-21T08:48:43.647Z,21.80
2023-01-21T08:51:11.878Z,20.57
2023-01-21T08:53:39.944Z,20.23
2023-01-21T08:56:08.525Z,20.30
2023-01-21T08:58:37.125Z,20.00
2023-01-21T09:01:09.170Z,19.53
2023-01-21T09:03:38.536Z,20.00
2023-01-21T09:06:08.318Z,19.03
2023-01-21T09:08:37.233Z,19.60
2023-01-21T09:11:06.828Z,20.77
2023-01-21T09:13:37.319Z,20.53
2023-01-21T09:16:09.933Z,17.80
2023-01-21T09:18:39.295Z,19.43
2023-01-21T09:21:08.249Z,20.17
2023-01-21T09:23:37.412Z,19.17
2023-01-21T09:26:08.580Z,18.90
2023-01-21T09:28:38.162Z,20.07
2023-01-21T09:31:08.367Z,18.90
2023-01-21T09:33:40.304Z,16.50
2023-01-21T09:36:10.097Z,16.00
2023-01-21T09:38:38.079Z,18.87
2023-01-21T09:41:16.491Z,17.50
2023-01-21T09:43:47.436Z,16.70
2023-01-21T09:46:26.098Z,17.73
2023-01-21T09:48:56.934Z,17.97
2023-01-21T09:51:30.002Z,17.23
2023-01-21T09:53:59.408Z,15.90
2023-01-21T09:56:33.731Z,17.73
2023-01-21T09:59:07.606Z,16.23
2023-01-21T10:01:39.579Z,14.70
2023-01-21T10:04:28.749Z,16.07
2023-01-21T10:07:02.455Z,16.67
2023-01-21T10:09:44.252Z,16.60
2023-01-21T10:12:27.677Z,17.10
2023-01-21T10:15:20.764Z,15.10
2023-01-21T10:17:56.025Z,15.50
2023-01-21T10:20:28.882Z,17.63
2023-01-21T10:23:01.871Z,16.63
2023-01-21T10:25:33.000Z,16.20
2023-01-21T10:28:05.889Z,15.00
2023-01-21T10:30:37.748Z,14.83
2023-01-21T10:33:08.288Z,14.97
2023-01-21T10:35:58.557Z,13.20
2023-01-21T10:38:33.500Z,15.07
2023-01-21T10:41:10.013Z,16.07
2023-01-21T10:43:44.351Z,13.53
2023-01-21T10:46:19.533Z,15.47
2023-01-21T10:48:53.491Z,15.90
2023-01-21T10:51:29.535Z,16.00
2023-01-21T10:54:04.169Z,14.53
2023-01-21T10:56:43.328Z,14.63
2023-01-21T10:59:14.512Z,15.63
2023-01-21T11:01:46.075Z,16.30
2023-01-21T11:04:17.559Z,16.40
2023-01-21T11:06:52.156Z,16.33
2023-01-21T11:09:20.241Z,15.23
2023-01-21T11:11:48.245Z,13.73
2023-01-21T11:14:16.312Z,15.00
2023-01-21T11:16:46.436Z,15.03
2023-01-21T11:19:15.923Z,16.33
2023-01-21T11:22:00.384Z,17.00
2023-01-21T11:24:29.670Z,15.90
2023-01-21T11:27:00.509Z,16.17
2023-01-21T11:29:40.384Z,15.83
2023-01-21T11:32:19.288Z,17.70
2023-01-21T11:34:49.025Z,15.00
2023-01-21T11:37:24.884Z,15.13
2023-01-21T11:39:56.798Z,14.57
2023-01-21T11:42:25.310Z,14.90
2023-01-21T11:44:55.962Z,14.70
2023-01-21T11:47:48.570Z,14.53
2023-01-21T11:50:19.281Z,14.03
2023-01-21T11:53:14.077Z,14.87
2023-01-21T11:55:45.462Z,11.97
2023-01-21T11:58:23.309Z,13.07
2023-01-21T12:00:54.245Z,14.07
2023-01-21T12:03:25.726Z,12.90
2023-01-21T12:05:54.971Z,13.00
2023-01-21T12:08:26.320Z,14.30
2023-01-21T12:10:56.711Z,13.30
2023-01-21T12:13:30.875Z,13.93
2023-01-21T12:16:26.141Z,14.00
2023-01-21T12:19:16.426Z,14.67
2023-01-21T12:21:56.057Z,15.10
2023-01-21T12:24:38.086Z,13.87
2023-01-21T12:27:17.151Z,12.97
2023-01-21T12:29:55.707Z,15.27
2023-01-21T12:32:27.090Z,13.20
2023-01-21T12:34:59.457Z,13.77
2023-01-21T12:37:31.978Z,12.97
2023-01-21T12:40:13.169Z,13.30
2023-01-21T12:42:45.981Z,12.80
2023-01-21T12:45:18.643Z,14.10
2023-01-21T12:47:53.417Z,14.20
2023-01-21T12:50:28.235Z,13.53
2023-01-21T12:53:06.658Z,13.63
2023-01-21T12:55:56.791Z,14.37
2023-01-21T12:58:25.145Z,13.57
2023-01-21T13:00:55.166Z,14.10
2023-01-21T13:03:33.909Z,14.73
2023-01-21T13:06:07.336Z,14.33
2023-01-21T13:08:48.640Z,13.60
2023-01-21T13:11:22.722Z,13.23
2023-01-21T13:13:58.360Z,14.10
2023-01-21T13:16:28.726Z,13.80
2023-01-21T13:18:57.397Z,14.33
2023-01-21T13:21:38.471Z,15.30
2023-01-21T13:24:16.756Z,13.77
2023-01-21T13:26:54.189Z,15.70
2023-01-21T13:29:32.031Z,14.27
2023-01-21T13:32:17.330Z,14.57
2023-01-21T13:34:52.470Z,14.63
2023-01-21T13:37:30.179Z,13.53
2023-01-21T13:40:22.398Z,14.70
2023-01-21T13:43:01.550Z,14.73
2023-01-21T13:45:36.876Z,14.97
2023-01-21T13:48:52.796Z,14.10
2023-01-21T13:51:36.630Z,14.60
2023-01-21T13:54:33.385Z,14.43
2023-01-21T13:57:27.638Z,15.00
2023-01-21T14:00:01.425Z,14.90
2023-01-21T14:02:35.511Z,14.37
2023-01-21T14:05:09.137Z,13.53
2023-01-21T14:07:43.169Z,15.50
2023-01-21T14:10:16.183Z,14.40
2023-01-21T14:13:01.442Z,13.63
2023-01-21T14:15:48.916Z,12.17
2023-01-21T14:18:34.142Z,13.83
2023-01-21T14:21:25.653Z,13.63
2023-01-21T14:24:09.415Z,12.60
2023-01-21T14:27:00.578Z,13.80
2023-01-21T14:29:39.402Z,15.03
2023-01-21T14:32:14.283Z,13.30
2023-01-21T14:34:51.664Z,13.83
2023-01-21T14:37:28.707Z,14.00
2023-01-21T14:40:05.654Z,11.93
2023-01-21T14:42:44.922Z,12.63
2023-01-21T14:45:14.798Z,13.17
2023-01-21T14:47:52.300Z,14.30
2023-01-21T14:50:48.033Z,13.57
2023-01-21T14:53:22.447Z,14.67
2023-01-21T14:56:09.359Z,13.00
2023-01-21T14:58:37.883Z,14.00
2023-01-21T15:01:07.933Z,14.40
2023-01-21T15:03:49.908Z,14.73
2023-01-21T15:06:23.130Z,12.40
2023-01-21T15:08:53.609Z,12.80
2023-01-21T15:11:24.733Z,13.53
2023-01-21T15:14:07.313Z,14.60
2023-01-21T15:16:37.467Z,14.50
2023-01-21T15:19:37.091Z,14.47
2023-01-21T15:22:23.171Z,12.77
2023-01-21T15:25:18.431Z,12.03
2023-01-21T15:28:38.269Z,12.87
2023-01-21T15:31:08.764Z,12.80
2023-01-21T15:33:39.488Z,13.30
2023-01-21T15:36:25.819Z,11.80
2023-01-21T15:38:58.437Z,12.20
2023-01-21T15:41:36.748Z,12.03
2023-01-21T15:44:21.666Z,12.17
2023-01-21T15:46:57.654Z,14.47
2023-01-21T15:49:38.030Z,12.93
2023-01-21T15:52:22.435Z,11.63
2023-01-21T15:54:57.740Z,12.23
2023-01-21T15:57:41.969Z,11.27
2023-01-21T16:00:32.367Z,11.43
2023-01-21T16:03:10.288Z,11.60
2023-01-21T16:05:48.537Z,11.63
2023-01-21T16:08:28.055Z,10.80
2023-01-21T16:11:09.414Z,11.40
2023-01-21T16:13:52.628Z,11.70
2023-01-21T16:16:32.651Z,10.50
2023-01-21T16:19:03.272Z,12.07
2023-01-21T16:21:34.130Z,10.40
2023-01-21T16:24:06.740Z,10.73
2023-01-21T16:26:34.747Z,10.13
2023-01-21T16:29:02.870Z,9.60
2023-01-21T16:31:30.914Z,11.33
2023-01-21T16:33:58.952Z,9.23
2023-01-21T16:36:27.095Z,9.87
2023-01-21T16:38:55.180Z,9.40
2023-01-21T16:41:27.888Z,10.47
2023-01-21T16:44:01.257Z,9.77
2023-01-21T16:46:34.675Z,10.23
2023-01-21T16:49:05.676Z,10.20
2023-01-21T16:51:36.157Z,9.20
2023-01-21T16:54:23.379Z,9.57
2023-01-21T16:56:55.334Z,9.00
2023-01-21T16:59:27.921Z,9.57
2023-01-21T17:01:57.826Z,8.40
2023-01-21T17:04:26.020Z,8.73
2023-01-21T17:06:54.750Z,9.27
2023-01-21T17:09:32.328Z,9.07
2023-01-21T17:12:05.532Z,9.33
2023-01-21T17:14:35.420Z,9.07
2023-01-21T17:17:07.043Z,8.93
2023-01-21T17:19:38.480Z,9.00
2023-01-21T17:22:15.312Z,9.77
2023-01-21T17:24:56.646Z,9.20
2023-01-21T17:27:26.457Z,9.27
2023-01-21T17:29:54.635Z,9.60
2023-01-21T17:32:27.184Z,9.70
2023-01-21T17:35:11.459Z,9.70
2023-01-21T17:37:43.876Z,11.10
2023-01-21T17:40:26.296Z,9.77
2023-01-21T17:42:56.360Z,10.93
2023-01-21T17:45:30.399Z,9.53
2023-01-21T17:48:09.409Z,9.93
2023-01-21T17:50:38.427Z,9.80
2023-01-21T17:53:10.015Z,10.53
2023-01-21T17:55:40.207Z,10.40
2023-01-21T17:58:52.400Z,10.00
2023-01-21T18:01:21.642Z,10.70
2023-01-21T18:03:49.771Z,9.40
2023-01-21T18:06:21.471Z,9.97
2023-01-21T18:08:50.864Z,10.93
2023-01-21T18:11:19.493Z,11.70
2023-01-21T18:13:50.006Z,11.23
2023-01-21T18:16:18.187Z,10.60
2023-01-21T18:18:46.292Z,9.70
2023-01-21T18:21:19.587Z,11.10
2023-01-21T18:23:48.011Z,11.60
2023-01-21T18:26:26.602Z,10.90
2023-01-21T18:28:56.106Z,11.10
2023-01-21T18:31:24.583Z,11.70
2023-01-21T18:33:52.736Z,11.40
2023-01-21T18:36:21.021Z,10.97
2023-01-21T18:38:49.079Z,11.83
2023-01-21T18:41:17.095Z,12.10
2023-01-21T18:43:45.194Z,12.23
2023-01-21T18:46:16.310Z,11.77
2023-01-21T18:48:44.858Z,11.90
2023-01-21T18:51:14.144Z,12.17
2023-01-21T18:53:42.254Z,13.33
2023-01-21T18:56:14.858Z,12.50
2023-01-21T18:58:43.183Z,12.07
2023-01-21T19:01:22.532Z,13.50
2023-01-21T19:03:54.689Z,11.40
2023-01-21T19:06:25.757Z,12.83
2023-01-21T19:08:55.175Z,12.50
2023-01-21T19:11:23.659Z,13.33
2023-01-21T19:13:51.652Z,14.53
2023-01-21T19:16:21.556Z,14.10
2023-01-21T19:18:49.860Z,15.87
2023-01-21T19:21:19.286Z,14.70
2023-01-21T19:23:47.445Z,14.53
2023-01-21T19:26:15.497Z,16.33
2023-01-21T19:28:43.561Z,15.97
2023-01-21T19:31:11.731Z,14.83
2023-01-21T19:33:41.930Z,17.90
2023-01-21T19:36:16.016Z,17.20
2023-01-21T19:38:49.204Z,17.60
2023-01-21T19:41:17.284Z,16.93
2023-01-21T19:43:46.104Z,18.13
2023-01-21T19:46:14.469Z,16.07
2023-01-21T19:48:42.657Z,17.67
2023-01-21T19:51:10.784Z,17.00
2023-01-21T19:53:39.200Z,17.70
2023-01-21T19:56:12.779Z,16.93
2023-01-21T19:58:42.122Z,16.10
2023-01-21T20:01:10.211Z,17.10
2023-01-21T20:03:40.055Z,15.83
2023-01-21T20:06:13.691Z,16.23
2023-01-21T20:08:42.044Z,16.40
2023-01-21T20:11:11.601Z,16.20
2023-01-21T20:13:39.663Z,15.23
2023-01-21T20:16:16.617Z,15.93
2023-01-21T20:18:46.203Z,14.33
2023-01-21T20:21:14.432Z,16.27
2023-01-21T20:23:42.538Z,16.30
2023-01-21T20:26:17.597Z,16.07
2023-01-21T20:28:50.448Z,15.63
2023-01-21T20:31:19.028Z,17.60
2023-01-21T20:33:47.163Z,15.57
2023-01-21T20:36:19.098Z,16.27
2023-01-21T20:38:47.102Z,16.70
2023-01-21T20:41:16.649Z,15.63
2023-01-21T20:43:44.642Z,16.43
2023-01-21T20:46:15.892Z,17.93
2023-01-21T20:48:45.439Z,16.27
2023-01-21T20:51:13.734Z,16.87
2023-01-21T20:53:41.847Z,17.53
2023-01-21T20:56:22.975Z,17.60
2023-01-21T20:58:51.329Z,17.03
2023-01-21T21:01:21.486Z,17.73
2023-01-21T21:03:49.745Z,17.87
2023-01-21T21:06:19.644Z,16.63
2023-01-21T21:08:48.194Z,17.00
2023-01-21T21:11:17.187Z,17.40
2023-01-21T21:13:50.319Z,16.80
2023-01-21T21:16:20.564Z,17.97
2023-01-21T21:18:49.172Z,16.10
2023-01-21T21:21:18.154Z,15.93
2023-01-21T21:23:46.742Z,17.57
2023-01-21T21:26:22.048Z,17.10
2023-01-21T21:28:54.464Z,18.63
2023-01-21T21:31:23.054Z,17.63
2023-01-21T21:33:51.242Z,17.10
2023-01-21T21:36:20.564Z,17.23
2023-01-21T21:38:49.271Z,16.67
2023-01-21T21:41:36.129Z,17.00
2023-01-21T21:44:05.852Z,15.90
2023-01-21T21:46:51.548Z,16.80
2023-01-21T21:49:19.614Z,17.70
2023-01-21T21:51:47.734Z,17.20
2023-01-21T21:54:18.210Z,17.67
2023-01-21T21:56:46.779Z,16.77
2023-01-21T21:59:16.474Z,18.73
2023-01-21T22:01:45.459Z,17.23
2023-01-21T22:04:13.637Z,17.30
2023-01-21T22:06:41.785Z,17.27
2023-01-21T22:09:10.754Z,17.87
2023-01-21T22:11:39.201Z,17.40
2023-01-21T22:14:07.919Z,19.13
2023-01-21T22:16:37.318Z,15.27
2023-01-21T22:19:05.285Z,17.77
2023-01-21T22:21:35.465Z,17.93
2023-01-21T22:24:05.557Z,15.40
2023-01-21T22:26:35.403Z,15.50
2023-01-21T22:29:04.294Z,16.60
2023-01-21T22:31:33.742Z,15.60
2023-01-21T22:34:03.124Z,16.30
2023-01-21T22:36:32.278Z,14.93
2023-01-21T22:39:00.972Z,16.70
2023-01-21T22:41:29.425Z,18.60
2023-01-21T22:43:57.571Z,16.63
2023-01-21T22:46:27.040Z,16.90
2023-01-21T22:48:55.516Z,16.30
2023-01-21T22:51:25.081Z,16.43
2023-01-21T22:53:53.958Z,15.97
2023-01-21T22:56:39.800Z,17.00
2023-01-21T22:59:11.806Z,16.13
2023-01-21T23:01:43.744Z,16.03
2023-01-21T23:04:11.864Z,17.13
2023-01-21T23:06:44.558Z,16.70
2023-01-21T23:09:15.167Z,16.10
2023-01-21T23:11:44.980Z,15.40
2023-01-21T23:14:13.475Z,16.23
2023-01-21T23:16:41.692Z,15.60
2023-01-21T23:19:09.723Z,16.47
2023-01-21T23:21:38.388Z,16.27
2023-01-21T23:24:09.463Z,16.13
2023-01-21T23:26:37.820Z,15.60
2023-01-21T23:29:05.966Z,15.17
2023-01-21T23:31:34.604Z,15.60
2023-01-21T23:34:03.285Z,15.17
2023-01-21T23:36:31.299Z,13.97
2023-01-21T23:38:59.301Z,15.03
2023-01-21T23:41:28.722Z,15.47
2023-01-21T23:43:59.642Z,14.93
2023-01-21T23:46:27.779Z,14.30
2023-01-21T23:48:55.894Z,12.93
2023-01-21T23:51:23.943Z,14.10
2023-01-21T23:53:51.988Z,14.50
2023-01-21T23:56:22.840Z,13.50
2023-01-21T23:58:52.803Z,13.90
